Time;durP1;ratioP1;P1;durP2;ratioP2;P2;SDS_P1;SDS_P2;PMS_P1;PMS_P2;Temp;Humidity;BMP_temperature;BMP_pressure;BME280_temperature;BME280_humidity;BME280_pressure;Samples;Min_cycle;Max_cycle;Signal;HPM_P1;HPM_P2
2021/05/10 00:00:54;;;;;;;4.88;2.80;;;13.90;87.10;;;;;;4975654;28;20027;-72
2021/05/10 00:03:21;;;;;;;6.28;2.97;;;13.90;87.30;;;;;;4975777;28;20489;-72
2021/05/10 00:05:49;;;;;;;5.25;2.95;;;13.90;88.80;;;;;;4976128;28;20532;-72
2021/05/10 00:08:15;;;;;;;5.35;2.65;;;13.90;88.60;;;;;;4975475;28;20034;-73
2021/05/10 00:10:41;;;;;;;5.40;2.83;;;13.90;87.40;;;;;;4974884;28;20023;-73
2021/05/10 00:13:09;;;;;;;5.80;2.90;;;14.00;89.20;;;;;;4975326;28;20015;-72
2021/05/10 00:15:35;;;;;;;6.93;2.72;;;13.90;88.70;;;;;;4974981;28;20029;-73
2021/05/10 00:18:03;;;;;;;5.70;3.00;;;13.90;88.00;;;;;;4975396;28;20022;-72
2021/05/10 00:20:30;;;;;;;4.28;2.85;;;13.80;90.00;;;;;;4975687;28;20018;-72
2021/05/10 00:22:57;;;;;;;4.43;2.88;;;13.80;90.20;;;;;;4975583;28;20495;-72
2021/05/10 00:25:23;;;;;;;5.30;3.00;;;13.60;90.50;;;;;;4975304;28;20034;-72
2021/05/10 00:27:49;;;;;;;5.45;3.00;;;13.50;90.70;;;;;;4975661;28;20031;-73
2021/05/10 00:30:16;;;;;;;5.00;2.97;;;13.60;91.00;;;;;;4975449;28;20105;-73
2021/05/10 00:32:42;;;;;;;4.35;2.80;;;13.50;91.30;;;;;;4975229;28;20026;-72
2021/05/10 00:35:08;;;;;;;5.32;3.05;;;13.60;91.00;;;;;;4975645;28;20019;-73
2021/05/10 00:37:34;;;;;;;4.75;3.10;;;13.60;91.00;;;;;;4957483;28;20029;-72
2021/05/10 00:40:00;;;;;;;5.18;3.00;;;13.50;91.70;;;;;;4975376;28;20027;-72
2021/05/10 00:42:26;;;;;;;5.15;3.10;;;13.60;91.80;;;;;;4975227;28;20053;-72
2021/05/10 00:44:52;;;;;;;4.03;2.80;;;13.50;91.70;;;;;;4974979;28;20413;-73
2021/05/10 00:47:18;;;;;;;4.70;2.90;;;13.50;91.90;;;;;;4974814;28;20042;-72
2021/05/10 00:49:44;;;;;;;4.50;2.83;;;13.30;91.70;;;;;;4974770;28;20469;-73
2021/05/10 00:52:10;;;;;;;6.72;2.70;;;13.40;92.00;;;;;;4957510;28;20033;-72
2021/05/10 00:54:36;;;;;;;8.02;3.00;;;13.30;92.30;;;;;;4975328;28;20047;-72
2021/05/10 00:57:02;;;;;;;5.50;2.85;;;13.30;92.20;;;;;;4975099;28;20539;-73
2021/05/10 00:59:29;;;;;;;4.85;2.70;;;13.20;92.60;;;;;;4974938;28;20049;-72
2021/05/10 01:01:55;;;;;;;5.35;3.03;;;13.20;92.90;;;;;;4975071;28;20054;-72
2021/05/10 01:04:21;;;;;;;5.28;2.90;;;13.20;92.80;;;;;;4974856;28;20051;-73
2021/05/10 01:06:47;;;;;;;5.10;2.90;;;13.10;93.00;;;;;;4974090;28;20023;-72
2021/05/10 01:09:13;;;;;;;4.63;2.75;;;13.10;92.80;;;;;;4974911;28;20077;-73
2021/05/10 01:11:39;;;;;;;5.97;3.50;;;13.00;93.30;;;;;;4957425;28;20552;-73
2021/05/10 01:14:05;;;;;;;8.02;3.20;;;13.00;93.30;;;;;;4974512;28;20023;-72
2021/05/10 01:16:31;;;;;;;5.18;3.10;;;13.10;93.20;;;;;;4975438;28;20019;-72
2021/05/10 01:18:57;;;;;;;7.00;3.30;;;13.10;93.20;;;;;;4975347;28;20041;-73
2021/05/10 01:21:25;;;;;;;5.68;2.42;;;13.00;93.20;;;;;;4975172;28;20057;-72
2021/05/10 01:23:51;;;;;;;4.15;2.50;;;13.10;93.30;;;;;;4975602;28;20015;-72
2021/05/10 01:26:17;;;;;;;5.63;2.90;;;13.10;93.20;;;;;;4975859;28;20038;-73
2021/05/10 01:28:43;;;;;;;5.22;2.70;;;13.00;93.40;;;;;;4977473;28;20027;-71
2021/05/10 01:31:09;;;;;;;7.25;2.92;;;13.00;93.40;;;;;;4978489;28;20050;-72
2021/05/10 01:33:36;;;;;;;4.78;2.65;;;13.00;93.70;;;;;;4978905;28;20026;-73
2021/05/10 01:36:01;;;;;;;5.07;2.88;;;13.00;94.10;;;;;;4979045;28;20027;-73
2021/05/10 01:38:27;;;;;;;6.15;2.88;;;12.90;93.90;;;;;;4978579;28;20023;-73
2021/05/10 01:40:53;;;;;;;5.75;2.83;;;12.90;94.00;;;;;;4979199;28;20022;-72
2021/05/10 01:43:20;;;;;;;3.72;2.75;;;12.90;94.50;;;;;;4978355;28;20101;-72
2021/05/10 01:45:47;;;;;;;5.68;3.20;;;12.90;94.00;;;;;;4978198;28;20039;-71
2021/05/10 01:48:14;;;;;;;6.45;3.03;;;12.90;94.10;;;;;;4978667;28;20062;-73
2021/05/10 01:50:46;;;;;;;9.10;3.50;;;12.80;94.30;;;;;;4960987;28;20029;-71
2021/05/10 01:53:12;;;;;;;6.20;3.67;;;12.80;95.10;;;;;;4977989;28;20051;-73
2021/05/10 01:55:38;;;;;;;7.80;3.70;;;12.70;94.70;;;;;;4978581;28;20026;-71
2021/05/10 01:58:06;;;;;;;5.35;3.90;;;12.70;94.60;;;;;;4979195;28;20110;-72
2021/05/10 02:00:39;;;;;;;7.43;4.25;;;12.70;94.80;;;;;;4960937;28;20381;-72
2021/05/10 02:03:09;;;;;;;7.47;4.50;;;12.60;95.20;;;;;;4977887;28;20074;-72
2021/05/10 02:05:36;;;;;;;7.65;4.90;;;12.50;95.50;;;;;;4977923;28;20045;-72
2021/05/10 02:08:04;;;;;;;11.68;5.50;;;12.40;95.40;;;;;;4978148;28;20098;-71
2021/05/10 02:10:33;;;;;;;9.02;5.28;;;12.40;95.60;;;;;;4978398;28;20069;-72
2021/05/10 02:13:10;;;;;;;9.70;5.05;;;12.40;95.60;;;;;;4978157;28;20023;-72
2021/05/10 02:15:42;;;;;;;9.50;4.72;;;12.40;95.60;;;;;;4978000;28;20058;-72
2021/05/10 02:18:09;;;;;;;9.48;4.50;;;12.40;96.10;;;;;;4978258;28;20022;-72
2021/05/10 02:20:36;;;;;;;7.60;4.70;;;12.40;95.60;;;;;;4977587;28;20038;-72
2021/05/10 02:23:05;;;;;;;5.95;4.22;;;12.30;95.80;;;;;;4959820;28;20482;-73
2021/05/10 02:25:33;;;;;;;7.40;5.07;;;12.20;95.90;;;;;;4977680;28;20081;-72
2021/05/10 02:28:00;;;;;;;8.88;4.75;;;12.20;96.20;;;;;;4978344;28;20023;-71
2021/05/10 02:30:28;;;;;;;6.13;3.90;;;12.20;96.40;;;;;;4978284;28;20034;-72
2021/05/10 02:32:55;;;;;;;6.05;3.58;;;12.20;96.10;;;;;;4977275;28;20532;-73
2021/05/10 02:35:22;;;;;;;6.07;3.40;;;12.30;96.30;;;;;;4960123;28;20107;-72
2021/05/10 02:37:49;;;;;;;5.30;3.10;;;12.30;96.10;;;;;;4977433;28;20500;-72
2021/05/10 02:40:16;;;;;;;5.85;2.90;;;12.20;96.00;;;;;;4977949;28;20022;-73
2021/05/10 02:42:42;;;;;;;5.35;3.35;;;12.10;96.10;;;;;;4977344;28;20106;-72
2021/05/10 02:45:09;;;;;;;5.03;3.15;;;12.10;96.00;;;;;;4977663;28;20038;-72
2021/05/10 02:47:36;;;;;;;6.78;3.15;;;12.00;96.70;;;;;;4960474;28;20034;-72
2021/05/10 02:50:06;;;;;;;6.53;3.00;;;12.00;96.70;;;;;;4977708;28;20023;-72
2021/05/10 02:52:32;;;;;;;4.70;3.03;;;12.00;96.60;;;;;;4977140;28;20035;-72
2021/05/10 02:54:58;;;;;;;5.53;3.20;;;12.00;96.20;;;;;;4977445;28;20023;-73
2021/05/10 02:57:24;;;;;;;4.95;2.90;;;11.90;96.40;;;;;;4977316;28;20030;-72
2021/05/10 02:59:50;;;;;;;5.90;3.00;;;11.90;96.60;;;;;;4959191;28;20078;-72
2021/05/10 03:02:16;;;;;;;5.75;3.47;;;11.90;96.70;;;;;;4976999;28;20069;-72
2021/05/10 03:04:41;;;;;;;5.82;3.25;;;11.90;96.50;;;;;;4977268;28;20029;-73
2021/05/10 03:07:07;;;;;;;5.88;3.22;;;11.80;96.90;;;;;;4976891;28;20444;-72
2021/05/10 03:09:33;;;;;;;6.15;3.10;;;11.90;97.50;;;;;;4976589;28;20038;-73
2021/05/10 03:11:59;;;;;;;6.55;3.35;;;11.90;97.20;;;;;;4959611;28;20104;-72
2021/05/10 03:14:26;;;;;;;6.55;3.10;;;11.80;97.00;;;;;;4959816;28;20030;-72
2021/05/10 03:16:52;;;;;;;6.20;3.10;;;11.80;97.40;;;;;;4976315;28;20023;-72
2021/05/10 03:19:18;;;;;;;4.05;2.83;;;11.80;97.10;;;;;;4976890;28;20046;-73
2021/05/10 03:21:46;;;;;;;5.65;3.30;;;11.70;97.00;;;;;;4977361;28;20041;-72
2021/05/10 03:24:12;;;;;;;4.35;3.08;;;11.70;97.30;;;;;;4976904;28;20030;-72
2021/05/10 03:26:38;;;;;;;5.78;3.45;;;11.60;97.20;;;;;;4976329;28;20023;-73
2021/05/10 03:29:05;;;;;;;7.05;2.90;;;11.70;97.30;;;;;;4976894;28;20027;-73
2021/05/10 03:31:32;;;;;;;6.70;3.60;;;11.60;97.70;;;;;;4977624;28;20015;-72
2021/05/10 03:33:59;;;;;;;7.22;3.60;;;11.80;97.80;;;;;;4959355;28;20079;-72
2021/05/10 03:36:25;;;;;;;4.68;3.20;;;11.80;98.20;;;;;;4977432;28;20023;-71
2021/05/10 03:38:51;;;;;;;4.90;3.30;;;11.70;98.00;;;;;;4976873;28;20054;-72
2021/05/10 03:41:17;;;;;;;4.55;3.67;;;11.70;97.60;;;;;;4976797;28;20019;-72
2021/05/10 03:43:43;;;;;;;5.65;3.55;;;11.80;97.60;;;;;;4959064;28;20054;-72
2021/05/10 03:46:09;;;;;;;10.57;3.70;;;11.90;97.70;;;;;;4976002;28;20031;-72
2021/05/10 03:48:35;;;;;;;5.75;3.60;;;11.90;97.40;;;;;;4975316;28;20038;-72
2021/05/10 03:51:01;;;;;;;7.65;3.65;;;11.90;97.50;;;;;;4975793;28;20074;-72
2021/05/10 03:53:28;;;;;;;8.00;3.60;;;11.80;97.60;;;;;;4976234;28;20100;-73
2021/05/10 03:55:54;;;;;;;9.00;3.72;;;11.70;97.70;;;;;;4976030;28;20474;-72
2021/05/10 03:58:20;;;;;;;8.50;3.67;;;11.80;97.70;;;;;;4975643;28;20034;-72
2021/05/10 04:00:45;;;;;;;10.25;3.83;;;11.80;97.80;;;;;;4976050;28;20110;-72
2021/05/10 04:03:14;;;;;;;10.30;3.97;;;11.70;98.10;;;;;;4976028;28;20062;-73
2021/05/10 04:16:14;;;;;;;13.98;5.70;;;12.20;97.80;;;;;;4975443;28;20051;-72
2021/05/10 04:18:40;;;;;;;8.40;4.80;;;12.20;97.50;;;;;;4975894;28;20018;-72
2021/05/10 04:21:06;;;;;;;10.27;4.60;;;12.20;97.60;;;;;;4975455;28;20015;-72
2021/05/10 04:23:32;;;;;;;8.05;4.05;;;12.30;97.30;;;;;;4975570;28;20031;-72
2021/05/10 04:25:58;;;;;;;9.20;4.53;;;12.50;97.30;;;;;;4975512;28;20029;-72
2021/05/10 04:28:25;;;;;;;10.25;4.78;;;12.70;96.70;;;;;;4975321;28;20507;-72
2021/05/10 04:30:52;;;;;;;8.57;3.90;;;12.60;96.70;;;;;;4975321;28;20034;-72
2021/05/10 04:33:28;;;;;;;6.22;3.40;;;12.80;96.50;;;;;;4975584;28;20019;-72
2021/05/10 04:35:54;;;;;;;7.60;3.78;;;;;;;;;;4975288;28;20122;-72
2021/05/10 04:38:21;;;;;;;4.68;2.90;;;13.00;95.50;;;;;;4958291;28;20026;-72
2021/05/10 04:40:47;;;;;;;7.00;3.30;;;13.20;95.40;;;;;;4975508;28;20027;-73
2021/05/10 04:43:13;;;;;;;5.57;3.10;;;13.20;95.60;;;;;;4975047;28;20023;-72
2021/05/10 04:45:39;;;;;;;7.35;3.28;;;13.20;95.50;;;;;;4974977;28;20351;-72
2021/05/10 04:48:05;;;;;;;6.97;3.00;;;13.40;95.70;;;;;;4957579;28;20045;-72
2021/05/10 04:50:31;;;;;;;5.40;2.72;;;13.40;95.20;;;;;;4975307;28;20366;-72
2021/05/10 04:52:57;;;;;;;5.65;3.10;;;13.50;95.00;;;;;;4975019;28;20133;-71
2021/05/10 04:55:23;;;;;;;8.43;3.03;;;13.60;94.90;;;;;;4974753;28;20110;-72
2021/05/10 04:57:49;;;;;;;5.50;2.92;;;13.70;95.00;;;;;;4974634;28;20034;-72
2021/05/10 05:00:16;;;;;;;5.78;3.15;;;13.80;94.90;;;;;;4974675;28;20023;-73
2021/05/10 05:02:44;;;;;;;8.10;3.42;;;13.80;95.60;;;;;;4974778;28;20033;-73
2021/05/10 05:05:11;;;;;;;7.18;3.35;;;13.90;95.10;;;;;;4974762;28;20038;-72
2021/05/10 05:07:39;;;;;;;8.25;3.60;;;14.00;94.90;;;;;;4975140;28;20539;-71
2021/05/10 05:10:09;;;;;;;6.72;3.47;;;14.10;94.80;;;;;;4975039;28;20030;-72
2021/05/10 05:12:39;;;;;;;11.18;5.95;;;14.20;94.40;;;;;;4975328;28;20493;-73
2021/05/10 05:15:08;;;;;;;10.43;6.13;;;14.30;95.30;;;;;;4974646;28;20090;-72
2021/05/10 05:17:37;;;;;;;11.73;5.90;;;14.30;94.50;;;;;;4975391;28;20034;-72
2021/05/10 05:20:05;;;;;;;9.15;5.10;;;14.30;94.70;;;;;;4974718;28;20101;-73
2021/05/10 05:22:31;;;;;;;12.30;6.20;;;14.50;94.40;;;;;;4974830;28;20074;-71
2021/05/10 05:24:57;;;;;;;11.65;6.50;;;14.60;94.70;;;;;;4974754;28;20027;-73
2021/05/10 05:27:24;;;;;;;13.40;5.80;;;14.60;95.50;;;;;;4974468;28;20380;-72
2021/05/10 05:29:50;;;;;;;22.52;5.97;;;14.50;94.60;;;;;;4974514;28;20026;-72
2021/05/10 05:32:16;;;;;;;20.75;6.00;;;14.60;94.60;;;;;;4974772;28;20074;-70
2021/05/10 05:34:42;;;;;;;11.18;5.60;;;14.70;95.20;;;;;;4974530;28;20062;-69
2021/05/10 05:37:08;;;;;;;14.52;6.18;;;14.90;95.10;;;;;;4955331;28;20030;-70
2021/05/10 05:39:34;;;;;;;12.50;6.50;;;15.00;92.70;;;;;;4974084;28;20116;-71
2021/05/10 05:42:00;;;;;;;15.18;6.85;;;15.10;92.10;;;;;;4974640;28;20027;-71
2021/05/10 05:44:26;;;;;;;11.68;5.15;;;15.20;92.30;;;;;;4974471;28;20416;-70
2021/05/10 05:46:59;;;;;;;9.65;4.43;;;15.40;92.10;;;;;;4974544;28;20085;-71
2021/05/10 05:49:26;;;;;;;8.52;3.90;;;15.50;91.30;;;;;;4974806;28;20037;-72
2021/05/10 05:51:52;;;;;;;8.23;4.30;;;15.60;90.30;;;;;;4974536;28;20046;-75
2021/05/10 05:54:18;;;;;;;11.23;4.72;;;15.60;90.00;;;;;;4953513;29;20055;-72
2021/05/10 05:56:44;;;;;;;6.55;4.00;;;15.60;90.50;;;;;;4954972;29;20485;-72
2021/05/10 05:59:10;;;;;;;7.95;4.60;;;15.70;89.40;;;;;;4955199;29;20030;-73
2021/05/10 06:01:36;;;;;;;10.60;6.45;;;15.80;89.10;;;;;;4955326;29;20485;-70
2021/05/10 06:04:03;;;;;;;9.05;3.40;;;16.00;87.20;;;;;;4954943;29;20118;-72
2021/05/10 06:06:29;;;;;;;8.27;4.00;;;16.20;87.40;;;;;;4955085;28;20490;-71
2021/05/10 06:08:56;;;;;;;7.72;4.10;;;16.30;87.70;;;;;;4954834;29;20046;-72
2021/05/10 06:11:22;;;;;;;8.25;4.30;;;16.40;85.50;;;;;;4954904;28;20347;-72
2021/05/10 06:13:48;;;;;;;9.60;4.22;;;16.50;88.40;;;;;;4958427;29;20462;-71
2021/05/10 06:16:14;;;;;;;8.77;3.85;;;16.70;86.10;;;;;;4958456;29;20027;-72
2021/05/10 06:18:42;;;;;;;7.93;3.90;;;16.60;84.20;;;;;;4957256;29;20042;-73
2021/05/10 06:21:08;;;;;;;12.05;4.25;;;16.70;86.60;;;;;;4958773;29;20110;-71
2021/05/10 06:23:34;;;;;;;7.63;4.07;;;16.70;85.40;;;;;;4958205;29;20024;-72
2021/05/10 06:26:01;;;;;;;6.72;4.10;;;16.90;86.80;;;;;;4958340;29;20486;-72
2021/05/10 06:28:27;;;;;;;9.40;3.95;;;16.90;85.10;;;;;;4958336;29;20024;-71
2021/05/10 06:30:52;;;;;;;8.95;4.53;;;17.00;85.50;;;;;;4958230;29;20381;-71
2021/05/10 06:33:18;;;;;;;7.00;4.60;;;17.10;85.30;;;;;;4958341;29;20497;-71
2021/05/10 06:35:44;;;;;;;10.10;5.38;;;17.20;84.90;;;;;;4958318;29;20023;-72
2021/05/10 06:38:13;;;;;;;8.50;5.38;;;17.40;84.50;;;;;;4957869;29;20053;-75
2021/05/10 06:40:40;;;;;;;8.20;4.70;;;17.40;82.60;;;;;;4958401;29;20015;-75
2021/05/10 06:43:05;;;;;;;9.70;4.55;;;17.60;85.10;;;;;;4958458;29;20031;-72
2021/05/10 06:45:31;;;;;;;10.35;5.65;;;17.80;82.70;;;;;;4958666;29;20023;-70
2021/05/10 06:47:57;;;;;;;8.85;4.63;;;18.00;84.50;;;;;;4957850;29;20119;-73
2021/05/10 06:50:24;;;;;;;5.95;4.30;;;18.10;81.90;;;;;;4958245;29;20023;-72
2021/05/10 06:52:49;;;;;;;7.75;4.20;;;18.30;81.40;;;;;;4961734;28;20521;-73
2021/05/10 06:55:15;;;;;;;11.18;3.63;;;18.50;81.40;;;;;;4977832;28;20488;-72
2021/05/10 06:57:41;;;;;;;6.75;3.67;;;18.60;80.30;;;;;;4977946;28;20022;-72
2021/05/10 07:00:09;;;;;;;6.38;3.67;;;18.60;78.30;;;;;;4978549;28;20027;-72
2021/05/10 07:02:36;;;;;;;9.80;3.83;;;18.80;77.60;;;;;;4978355;28;20074;-71
2021/05/10 07:05:02;;;;;;;8.07;4.13;;;19.00;77.90;;;;;;4977385;28;20082;-71
2021/05/10 07:07:27;;;;;;;8.45;4.22;;;19.20;77.90;;;;;;4978747;28;20031;-70
2021/05/10 07:09:53;;;;;;;5.30;3.55;;;19.40;79.20;;;;;;4978335;28;20081;-71
2021/05/10 07:12:19;;;;;;;7.80;3.35;;;19.40;72.50;;;;;;4962083;28;20062;-71
2021/05/10 07:14:45;;;;;;;7.53;3.70;;;19.50;72.50;;;;;;4977874;28;20430;-71
2021/05/10 07:17:11;;;;;;;6.63;3.30;;;19.70;74.00;;;;;;4977475;28;20023;-74
2021/05/10 07:19:37;;;;;;;8.88;4.05;;;19.90;70.80;;;;;;4978015;28;20110;-71
2021/05/10 07:22:03;;;;;;;6.05;3.70;;;20.00;71.10;;;;;;4977576;28;20477;-71
2021/05/10 07:24:30;;;;;;;9.38;3.92;;;20.30;71.10;;;;;;4976571;28;20555;-71
2021/05/10 07:26:56;;;;;;;6.43;3.38;;;20.60;71.70;;;;;;4977260;28;20066;-71
2021/05/10 07:29:22;;;;;;;8.45;3.50;;;20.80;69.80;;;;;;4977224;28;20022;-70
2021/05/10 07:31:48;;;;;;;5.57;3.10;;;21.00;68.30;;;;;;4976876;28;20481;-71
2021/05/10 07:34:13;;;;;;;6.68;3.45;;;21.10;63.20;;;;;;4960927;28;20077;-72
2021/05/10 07:36:40;;;;;;;6.45;3.28;;;21.00;61.60;;;;;;4977498;28;20019;-71
2021/05/10 07:39:06;;;;;;;6.53;3.20;;;21.20;63.80;;;;;;4976920;28;20073;-72
2021/05/10 07:41:32;;;;;;;6.18;3.25;;;21.30;64.50;;;;;;4977218;28;20533;-72
2021/05/10 07:43:58;;;;;;;10.60;4.32;;;21.50;65.10;;;;;;4976410;28;20097;-73
2021/05/10 07:46:24;;;;;;;7.82;3.60;;;21.60;62.20;;;;;;4976114;28;20493;-73
2021/05/10 07:48:50;;;;;;;5.63;2.88;;;21.70;62.70;;;;;;4976233;28;20363;-71
2021/05/10 07:51:16;;;;;;;7.15;2.83;;;21.90;61.80;;;;;;4976354;28;20027;-72
2021/05/10 07:53:42;;;;;;;7.07;3.45;;;22.10;65.70;;;;;;4975690;28;20572;-72
2021/05/10 07:56:08;;;;;;;9.07;3.15;;;22.30;60.30;;;;;;4958454;28;20373;-72
2021/05/10 07:58:38;;;;;;;7.43;3.30;;;22.50;62.10;;;;;;4976181;28;20098;-73
2021/05/10 08:01:04;;;;;;;7.13;3.45;;;22.20;61.10;;;;;;4975952;28;20034;-73
2021/05/10 08:03:31;;;;;;;8.77;3.33;;;22.50;58.90;;;;;;4976064;28;20015;-73
2021/05/10 08:05:59;;;;;;;7.53;3.20;;;22.70;64.30;;;;;;4975505;28;20015;-73
2021/05/10 08:08:26;;;;;;;7.93;3.13;;;22.60;60.20;;;;;;4975877;28;20114;-73
2021/05/10 08:10:52;;;;;;;9.35;3.17;;;22.60;58.60;;;;;;4958165;28;20062;-72
2021/05/10 08:13:18;;;;;;;9.95;3.50;;;22.80;58.00;;;;;;4975759;28;20027;-74
2021/05/10 08:15:45;;;;;;;10.30;3.30;;;23.10;59.20;;;;;;4975419;28;20016;-75
2021/05/10 08:18:11;;;;;;;8.38;3.85;;;23.30;57.80;;;;;;4975650;28;20046;-73
2021/05/10 08:20:39;;;;;;;9.35;4.35;;;23.40;59.30;;;;;;4975319;28;20547;-73
2021/05/10 08:23:05;;;;;;;6.75;3.45;;;23.50;58.10;;;;;;4975763;28;20429;-73
2021/05/10 08:25:31;;;;;;;9.43;3.65;;;23.60;57.90;;;;;;4958471;28;20070;-73
2021/05/10 08:27:57;;;;;;;5.32;3.50;;;23.70;57.20;;;;;;4976104;28;20053;-72
2021/05/10 08:30:23;;;;;;;6.95;3.08;;;23.70;56.50;;;;;;4975961;28;20026;-73
2021/05/10 08:32:49;;;;;;;6.22;3.55;;;23.70;57.00;;;;;;4975604;28;20027;-74
2021/05/10 08:35:15;;;;;;;7.45;3.10;;;23.90;56.50;;;;;;4974854;28;20469;-74
2021/05/10 08:37:41;;;;;;;8.07;3.22;;;23.90;56.90;;;;;;4975387;28;20038;-73
2021/05/10 08:40:07;;;;;;;8.88;4.05;;;24.20;54.70;;;;;;4975569;28;20019;-73
2021/05/10 08:42:33;;;;;;;8.05;3.80;;;24.30;54.70;;;;;;4946263;29;20031;-73
2021/05/10 08:45:00;;;;;;;7.82;3.55;;;24.40;55.60;;;;;;4958252;28;20038;-78
2021/05/10 08:47:32;;;;;;;6.50;3.25;;;24.50;54.70;;;;;;4965388;28;20016;-77
2021/05/10 08:49:59;;;;;;;6.22;3.30;;;24.70;55.80;;;;;;4964376;28;20035;-75
2021/05/10 08:52:26;;;;;;;5.82;3.50;;;24.80;54.70;;;;;;4974775;28;20564;-74
2021/05/10 08:54:52;;;;;;;10.07;3.28;;;25.00;54.60;;;;;;4945126;29;20038;-77
2021/05/10 08:57:18;;;;;;;6.10;2.92;;;25.00;55.90;;;;;;4954909;29;20541;-74
2021/05/10 08:59:44;;;;;;;5.38;2.90;;;25.00;52.30;;;;;;4955300;29;20020;-76
2021/05/10 09:02:10;;;;;;;5.70;2.85;;;;;;;;;;4955790;29;20482;-77
2021/05/10 09:04:39;;;;;;;7.45;3.00;;;25.10;52.90;;;;;;4954357;29;20051;-74
2021/05/10 09:07:23;;;;;;;5.07;3.05;;;25.30;51.60;;;;;;4954586;29;20031;-72
2021/05/10 09:09:58;;;;;;;5.90;3.22;;;25.60;54.10;;;;;;4937792;29;20430;-70
2021/05/10 09:12:43;;;;;;;7.10;3.20;;;25.80;51.30;;;;;;4939312;29;20043;-73
2021/05/10 09:15:22;;;;;;;6.13;3.40;;;26.00;50.90;;;;;;4957156;29;20034;-72
2021/05/10 09:17:57;;;;;;;9.00;3.10;;;26.50;53.00;;;;;;4954806;29;20488;-71
2021/05/10 09:20:25;;;;;;;9.20;3.17;;;26.80;51.60;;;;;;4955117;29;20024;-69
2021/05/10 09:22:54;;;;;;;5.72;3.13;;;26.80;51.20;;;;;;4954856;29;20024;-71
2021/05/10 09:25:30;;;;;;;7.53;3.50;;;26.80;50.60;;;;;;4954561;29;20529;-71
2021/05/10 09:28:14;;;;;;;7.63;3.30;;;26.90;50.50;;;;;;4954967;29;20079;-72
2021/05/10 09:30:42;;;;;;;6.22;2.88;;;26.80;49.40;;;;;;4954136;28;20019;-74
2021/05/10 09:33:24;;;;;;;6.80;3.10;;;27.00;48.30;;;;;;4955225;29;20039;-72
2021/05/10 09:35:57;;;;;;;8.73;3.30;;;27.00;49.40;;;;;;4937320;29;20039;-72
2021/05/10 09:38:25;;;;;;;5.85;3.22;;;27.30;48.90;;;;;;4954410;29;20027;-73
2021/05/10 09:40:52;;;;;;;6.60;3.33;;;27.20;50.50;;;;;;4937145;29;20078;-73
2021/05/10 09:43:21;;;;;;;4.93;2.70;;;27.40;49.20;;;;;;4954673;29;20026;-73
2021/05/10 09:45:49;;;;;;;5.63;2.72;;;27.20;47.40;;;;;;4937150;28;20035;-73
2021/05/10 09:48:22;;;;;;;4.40;2.80;;;27.60;48.50;;;;;;4939521;29;20436;-72
2021/05/10 09:51:02;;;;;;;4.47;2.50;;;27.80;46.10;;;;;;4957534;29;20031;-72
2021/05/10 09:53:47;;;;;;;4.50;2.50;;;27.80;49.50;;;;;;4907813;29;774494;-73
2021/05/10 09:56:27;;;;;;;6.53;2.88;;;27.50;44.90;;;;;;4921376;29;20032;-72
2021/05/10 09:59:15;;;;;;;5.10;2.70;;;27.90;47.90;;;;;;4921465;29;20484;-76
2021/05/10 10:01:43;;;;;;;5.15;2.80;;;28.00;45.10;;;;;;4921241;29;20032;-79
2021/05/10 10:04:10;;;;;;;5.35;2.70;;;28.30;46.10;;;;;;4920723;29;20020;-72
2021/05/10 10:06:37;;;;;;;4.18;2.40;;;28.70;49.00;;;;;;4920841;29;20025;-78
2021/05/10 10:09:04;;;;;;;4.90;2.78;;;28.90;47.40;;;;;;4920788;29;20383;-77
2021/05/10 10:11:31;;;;;;;4.10;2.47;;;29.10;46.90;;;;;;4920522;29;20107;-78
2021/05/10 10:13:58;;;;;;;6.18;2.50;;;29.30;45.90;;;;;;4920582;29;20035;-78
2021/05/10 10:16:29;;;;;;;6.47;2.92;;;29.40;45.20;;;;;;4920599;29;20028;-81
2021/05/10 10:18:59;;;;;;;7.38;4.03;;;29.60;46.40;;;;;;4920713;29;20534;-77
2021/05/10 10:21:25;;;;;;;5.07;2.80;;;29.60;43.70;;;;;;4927174;29;20114;-73
2021/05/10 10:24:05;;;;;;;6.80;2.80;;;29.80;44.60;;;;;;4939554;29;20027;-79
2021/05/10 10:26:34;;;;;;;5.28;2.58;;;29.80;44.00;;;;;;4939557;29;20486;-72
2021/05/10 10:29:10;;;;;;;4.85;2.60;;;30.10;46.00;;;;;;4939368;29;20414;-75
2021/05/10 10:31:40;;;;;;;7.07;2.40;;;29.70;43.10;;;;;;4939641;29;20032;-73
2021/05/10 10:34:22;;;;;;;3.92;2.20;;;30.10;46.50;;;;;;4939423;29;20032;-74
2021/05/10 10:36:54;;;;;;;4.60;2.20;;;30.10;45.40;;;;;;4939488;29;20088;-74
2021/05/10 10:39:23;;;;;;;4.07;2.17;;;29.90;44.80;;;;;;4939567;29;20051;-72
2021/05/10 10:42:22;;;;;;;4.70;2.10;;;29.40;41.30;;;;;;4939114;29;20035;-73
2021/05/10 10:44:56;;;;;;;4.95;2.10;;;29.70;42.70;;;;;;4937285;29;20035;-73
2021/05/10 10:47:57;;;;;;;3.45;1.98;;;29.10;42.40;;;;;;4938870;29;20031;-78
2021/05/10 10:50:24;;;;;;;5.10;1.90;;;29.50;44.60;;;;;;4937757;29;20043;-73
2021/05/10 10:52:58;;;;;;;3.67;2.08;;;29.90;40.70;;;;;;4941541;29;20054;-78
2021/05/10 10:55:33;;;;;;;3.40;1.88;;;30.00;43.20;;;;;;4957287;29;20019;-79
2021/05/10 10:58:15;;;;;;;3.63;2.05;;;29.70;38.20;;;;;;4957514;28;20031;-72
2021/05/10 11:00:56;;;;;;;4.22;2.13;;;29.40;41.50;;;;;;4958101;29;20036;-79
2021/05/10 11:03:23;;;;;;;4.70;1.92;;;29.40;39.10;;;;;;4956208;29;20115;-74
2021/05/10 11:05:49;;;;;;;4.35;2.20;;;29.40;42.90;;;;;;4957285;29;20381;-74
2021/05/10 11:08:15;;;;;;;3.92;1.92;;;29.70;43.80;;;;;;4957766;29;20027;-79
2021/05/10 11:10:47;;;;;;;3.95;1.63;;;30.10;41.30;;;;;;4957540;29;20030;-76
2021/05/10 11:13:26;;;;;;;2.85;1.73;;;29.90;38.70;;;;;;4956447;29;20039;-73
2021/05/10 11:15:58;;;;;;;3.15;1.85;;;30.10;39.70;;;;;;4957367;29;20059;-77
2021/05/10 11:18:55;;;;;;;7.20;2.05;;;30.40;40.10;;;;;;4957500;29;20023;-72
2021/05/10 11:21:25;;;;;;;4.22;1.60;;;30.80;40.70;;;;;;4957813;29;20031;-74
2021/05/10 11:24:02;;;;;;;3.83;1.80;;;30.80;42.80;;;;;;4957449;29;20027;-78
2021/05/10 11:26:45;;;;;;;3.60;1.90;;;31.00;42.20;;;;;;4956477;29;20114;-72
2021/05/10 11:29:34;;;;;;;4.97;1.75;;;31.20;42.10;;;;;;4955020;29;20093;-73
2021/05/10 11:32:09;;;;;;;3.53;1.50;;;31.20;41.30;;;;;;4951365;29;20036;-74
2021/05/10 11:34:38;;;;;;;5.22;2.03;;;30.70;37.50;;;;;;4955020;29;20110;-73
2021/05/10 11:37:06;;;;;;;3.13;1.75;;;30.50;37.60;;;;;;4953528;29;20034;-73
2021/05/10 11:39:39;;;;;;;5.18;2.00;;;30.20;37.90;;;;;;4954920;29;20110;-73
2021/05/10 11:42:06;;;;;;;5.03;2.00;;;29.80;39.70;;;;;;4956008;29;20031;-78
2021/05/10 11:44:38;;;;;;;4.80;2.00;;;30.20;41.30;;;;;;4957384;29;20034;-77
2021/05/10 11:47:09;;;;;;;5.40;2.22;;;30.60;43.10;;;;;;4957169;29;20031;-77
2021/05/10 11:49:36;;;;;;;5.95;2.25;;;31.00;43.70;;;;;;4957388;29;20415;-77
2021/05/10 11:52:10;;;;;;;7.03;2.42;;;31.10;43.70;;;;;;4957413;29;20026;-74
2021/05/10 11:54:40;;;;;;;3.53;2.20;;;31.40;41.70;;;;;;4974668;28;20050;-74
2021/05/10 11:57:08;;;;;;;4.53;2.20;;;31.60;40.50;;;;;;4976091;28;20034;-76
2021/05/10 12:02:13;;;;;;;7.40;1.92;;;31.70;39.00;;;;;;4976107;28;20034;-73
2021/05/10 12:04:42;;;;;;;8.18;2.15;;;31.50;40.20;;;;;;4958412;28;20186;-78
2021/05/10 12:07:08;;;;;;;6.10;1.90;;;31.80;41.80;;;;;;4975871;28;20027;-77
2021/05/10 12:09:52;;;;;;;4.22;2.20;;;31.80;38.20;;;;;;4975245;28;20037;-77
2021/05/10 12:12:18;;;;;;;4.10;2.00;;;31.90;40.70;;;;;;4975832;28;20081;-76
2021/05/10 12:14:53;;;;;;;3.53;1.85;;;31.80;40.60;;;;;;4958056;28;20121;-74
2021/05/10 12:17:28;;;;;;;5.47;2.47;;;31.80;38.80;;;;;;4958175;28;20034;-78
2021/05/10 12:20:03;;;;;;;7.38;2.53;;;31.10;36.10;;;;;;4958100;28;20031;-76
2021/05/10 12:22:34;;;;;;;5.75;2.28;;;31.20;37.70;;;;;;4958277;28;20025;-74
2021/05/10 12:25:05;;;;;;;4.40;2.30;;;31.40;40.20;;;;;;4975592;28;20537;-74
2021/05/10 12:27:43;;;;;;;5.65;2.70;;;31.60;41.00;;;;;;4975434;28;20030;-76
2021/05/10 12:30:18;;;;;;;3.75;2.10;;;31.80;37.70;;;;;;4975417;28;20474;-76
2021/05/10 12:32:46;;;;;;;7.25;2.28;;;31.60;37.80;;;;;;4975489;28;20476;-73
2021/05/10 12:35:15;;;;;;;3.80;1.90;;;31.70;40.00;;;;;;4975486;28;20094;-74
2021/05/10 12:37:43;;;;;;;8.13;2.35;;;31.40;36.60;;;;;;4975284;28;20390;-77
2021/05/10 12:40:11;;;;;;;3.92;2.15;;;31.10;37.40;;;;;;4975119;28;20014;-75
2021/05/10 12:42:37;;;;;;;5.28;2.05;;;31.00;38.90;;;;;;4975074;28;20045;-75
2021/05/10 12:45:14;;;;;;;5.40;2.20;;;31.20;40.00;;;;;;4975302;28;20045;-74
2021/05/10 12:47:49;;;;;;;6.97;2.30;;;31.10;37.30;;;;;;4975047;28;20031;-77
2021/05/10 12:50:35;;;;;;;3.95;2.30;;;31.00;39.20;;;;;;4975290;28;20469;-77
2021/05/10 12:53:03;;;;;;;5.43;2.38;;;30.80;41.00;;;;;;4974727;28;20051;-75
2021/05/10 12:55:30;;;;;;;4.50;2.80;;;31.00;41.30;;;;;;4975507;28;20102;-77
2021/05/10 12:57:57;;;;;;;4.82;2.30;;;31.20;40.30;;;;;;4975108;28;20124;-76
2021/05/10 13:00:37;;;;;;;5.38;2.60;;;30.60;37.90;;;;;;4974986;28;20059;-76
2021/05/10 13:03:23;;;;;;;4.13;2.38;;;30.90;41.80;;;;;;4975310;28;20026;-77
2021/05/10 13:05:49;;;;;;;5.25;2.40;;;31.00;41.50;;;;;;4975017;28;20107;-77